Řízení letového provozu České republiky
Letiste: LKNA Aktualizace: 24.03.2019 21:01:06  UTC
 METAR LKNA 24.03. 21:00 ...
METAR LKNA 242100Z 33006KT CAVOK 06/04 Q1018 RMK BLU=
 TAF LKNA 24.03. 17:00 ...
TAF LKNA 241700Z 2418/2518 33008KT 9999 BKN030      TEMPO 2418/2503 35015KT 5000 RA BKN020      TEMPO 2509/2518 30016G32KT      TEMPO 2512/2518 5000 SHRASN BKN015=